Aérodrome :
LOGIN :

S'inscrire | Disclaimer

   EN    FR    IT 

 










Légende :    VFR   VFR Marginal   IFR   IFR Intensif   IFR Très Intensif
Visi : 
Plafond : 
>= 8 km
>= 3000ft
5 à 8 km
1000 à 3000 ft
1500m à 5 km
500 à 1000 ft
800 à 1500m
200 à 500 ft
< 800m
< 200 ft
Symboles :   Orages  Brouillard  Fortes neiges  Fortes précipitations  Vent > 20 kt
SIGMETs :   Divers  Orages  Givrage  Turbulence  Onde Orograph.  Cendres Volcan.







- Altitude de l'aérodrome : 788 ft
- Code IATA : DCM
- Voir les cartes d'approche


LFCK - Castres-Mazamet

DERNIER METAR :
  • 220930Z AUTO VRB03KT CAVOK 30/20 Q1023 NOSIG

METARs EXPIRÉS :
  • 220900Z AUTO 27005KT 230V310 CAVOK 29/20 Q1023 NOSIG
  • 220830Z AUTO 26004KT 210V320 CAVOK 29/20 Q1023 NOSIG
  • 220800Z AUTO VRB02KT CAVOK 28/20 Q1023 NOSIG
  • 220730Z AUTO VRB03KT CAVOK 27/20 Q1023 NOSIG
  • 220700Z AUTO VRB01KT CAVOK 26/20 Q1023 NOSIG
  • 220630Z AUTO 12004KT 090V150 CAVOK 25/20 Q1023 NOSIG

TAF TAF LFCK
Valide du 22 à 09h jusqu'au 22 à 18h UTC


220800Z 2209/2218 VRB03KT CAVOK
BECMG 2212/2214 13007KT
Pas de NOTAMs connus pour ce terrain.



MET'MAP, la Météo Aéronautique d'un coup d'oeil ! - Copyright ORBIFLY Décembre 2007 - Disclaimer

ORBIFLY MET'MAP TEAM :

Programmation & Développement : Alexandra Zaïnal
Conception & Développement : Baudouin d'Aumeries
Co-Programmation & Développement : Marc-Olivier Méhu
Soutien technique & logistique : Manuel Goepfert

Contact : metmap@orbifly.com




SOURCES & CREDITS :

   NOAA